Time;durP1;ratioP1;P1;durP2;ratioP2;P2;SDS_P1;SDS_P2;PMS_P1;PMS_P2;Temp;Humidity;BMP_temperature;BMP_pressure;BME280_temperature;BME280_humidity;BME280_pressure;Samples;Min_cycle;Max_cycle;Signal;HPM_P1;HPM_P2
2022/01/20 00:09:38;;;;;;;26.73;13.90;;;;;;;2.64;100.00;101881.97;5050129;23;20381;-70
2022/01/20 00:28:15;;;;;;;28.73;13.70;;;;;;;2.71;100.00;101860.66;4957314;28;20030;-70
2022/01/20 00:34:10;;;;;;;30.73;12.93;;;;;;;2.83;100.00;101859.34;4957783;28;20050;-71
2022/01/20 00:37:16;;;;;;;28.02;13.27;;;;;;;2.78;100.00;101854.84;4943451;29;20437;-70
2022/01/20 00:40:05;;;;;;;25.70;12.88;;;;;;;2.44;100.00;101863.22;4957170;29;20367;-70
2022/01/20 00:42:50;;;;;;;23.58;12.52;;;;;;;2.63;100.00;101846.59;4957404;28;20523;-70
2022/01/20 00:45:36;;;;;;;26.08;12.13;;;;;;;2.63;100.00;101844.88;4955514;28;20049;-70
2022/01/20 00:48:22;;;;;;;22.30;12.00;;;;;;;2.51;100.00;101847.09;4957280;28;20027;-69
2022/01/20 00:51:09;;;;;;;23.15;11.95;;;;;;;2.97;100.00;101836.47;4956856;29;20031;-70
2022/01/20 00:53:55;;;;;;;25.15;11.80;;;;;;;2.44;100.00;101844.22;4957318;28;20046;-70
2022/01/20 00:56:41;;;;;;;23.10;11.60;;;;;;;2.50;100.00;101837.56;4955264;28;20117;-70
2022/01/20 00:59:29;;;;;;;23.80;12.85;;;;;;;2.13;100.00;101837.16;4955018;29;20032;-70
2022/01/20 01:02:15;;;;;;;28.15;12.63;;;;;;;2.25;100.00;101832.38;4955691;29;20067;-70
2022/01/20 01:05:03;;;;;;;24.88;12.63;;;;;;;2.18;100.00;101816.63;4957324;28;20027;-70
2022/01/20 01:12:13;;;;;;;26.55;12.38;;;;;;;2.08;100.00;101804.22;4956850;28;20038;-71
2022/01/20 01:15:01;;;;;;;26.20;12.40;;;;;;;2.25;100.00;101792.75;4956922;29;20412;-70
2022/01/20 01:23:44;;;;;;;22.42;11.68;;;;;;;2.29;100.00;101781.69;4956525;29;20457;-70
2022/01/20 01:26:30;;;;;;;24.00;12.07;;;;;;;2.17;100.00;101771.81;4956385;28;20427;-71
2022/01/20 01:29:37;;;;;;;24.15;12.38;;;;;;;2.01;100.00;101763.50;4943092;29;20110;-70
2022/01/20 01:32:29;;;;;;;21.98;11.43;;;;;;;2.60;100.00;101751.66;4956322;29;20479;-70
2022/01/20 01:35:18;;;;;;;21.23;11.55;;;;;;;2.46;100.00;101742.59;4956924;28;20166;-70
2022/01/20 01:44:33;;;;;;;19.42;10.43;;;;;;;2.41;100.00;101722.59;4957051;28;20047;-70
2022/01/20 01:47:19;;;;;;;21.10;11.13;;;;;;;2.47;100.00;101723.66;4942574;29;20179;-71
2022/01/20 01:50:05;;;;;;;28.15;11.75;;;;;;;2.54;100.00;101724.72;4943115;29;20023;-71
2022/01/20 01:52:54;;;;;;;20.27;10.85;;;;;;;2.30;100.00;101717.09;4959991;29;20479;-70
2022/01/20 01:55:39;;;;;;;20.58;10.95;;;;;;;2.74;100.00;101724.47;4961024;28;20062;-71
2022/01/20 01:58:25;;;;;;;17.92;10.48;;;;;;;2.26;100.00;101716.94;4960773;28;20334;-70
2022/01/20 02:01:11;;;;;;;18.17;10.23;;;;;;;2.29;100.00;101707.56;4959930;29;20019;-70
2022/01/20 02:04:00;;;;;;;20.15;10.45;;;;;;;2.42;100.00;101706.25;4959969;29;20400;-70
2022/01/20 02:21:52;;;;;;;24.85;11.90;;;;;;;2.51;100.00;101678.06;5997041;23;19917;-70
2022/01/20 02:46:32;;;;;;;21.70;11.25;;;;;;;1.85;100.00;101651.00;4958357;28;20538;-71
2022/01/20 02:49:18;;;;;;;22.40;11.70;;;;;;;2.31;100.00;101642.97;4945055;29;20416;-70
2022/01/20 02:52:06;;;;;;;20.95;11.30;;;;;;;1.93;100.00;101638.34;4945506;29;20027;-71
2022/01/20 02:54:54;;;;;;;25.00;11.57;;;;;;;1.92;100.00;101641.78;4959352;28;20046;-70
2022/01/20 02:57:40;;;;;;;20.08;11.00;;;;;;;2.22;100.00;101633.25;4958952;28;20037;-71
2022/01/20 03:00:27;;;;;;;21.17;11.45;;;;;;;2.23;100.00;101632.41;4958106;29;20034;-70
2022/01/20 03:03:13;;;;;;;22.38;11.55;;;;;;;2.35;100.00;101624.16;4958727;29;20023;-71
2022/01/20 03:13:02;;;;;;;26.20;11.93;;;;;;;2.49;100.00;101605.63;5630538;23;20059;-70
2022/01/20 03:15:48;;;;;;;21.13;11.18;;;;;;;2.60;100.00;101599.03;4944911;28;20449;-71
2022/01/20 03:18:34;;;;;;;24.38;12.27;;;;;;;2.26;100.00;101592.84;4944375;29;20031;-71
2022/01/20 03:21:20;;;;;;;21.63;10.95;;;;;;;2.18;100.00;101602.09;4958256;29;20065;-70
2022/01/20 03:24:07;;;;;;;22.10;11.98;;;;;;;2.20;100.00;101597.81;4958340;29;20400;-70
2022/01/20 03:26:53;;;;;;;24.92;12.65;;;;;;;2.48;100.00;101595.22;4958733;28;20038;-71
2022/01/20 03:29:39;;;;;;;25.33;12.52;;;;;;;2.40;100.00;101601.88;4958976;28;20503;-70
2022/01/20 03:32:24;;;;;;;27.00;12.38;;;;;;;2.33;100.00;101599.97;4958482;29;20090;-70
2022/01/20 03:35:12;;;;;;;26.83;13.25;;;;;;;2.25;100.00;101593.69;4958794;28;20121;-69
2022/01/20 03:37:58;;;;;;;22.95;12.45;;;;;;;2.51;100.00;101596.19;4957839;29;20023;-71
2022/01/20 03:40:44;;;;;;;25.13;12.75;;;;;;;2.82;100.00;101592.75;4958688;28;20420;-71
2022/01/20 03:43:30;;;;;;;24.38;12.93;;;;;;;2.30;100.00;101599.88;4958272;29;20031;-71
2022/01/20 03:46:16;;;;;;;27.50;12.23;;;;;;;1.88;100.00;101585.66;4956963;28;20042;-71
2022/01/20 03:49:10;;;;;;;26.80;12.60;;;;;;;1.83;100.00;101593.25;4957214;29;20034;-70
2022/01/20 03:51:56;;;;;;;26.17;12.65;;;;;;;1.07;100.00;101594.16;4958187;29;20114;-71
2022/01/20 03:54:41;;;;;;;26.85;13.40;;;;;;;0.86;100.00;101601.16;4957085;29;20035;-71
2022/01/20 03:57:27;;;;;;;31.38;13.88;;;;;;;0.68;100.00;101592.75;4956671;28;20094;-70
2022/01/20 04:00:14;;;;;;;23.33;13.07;;;;;;;0.64;100.00;101593.44;4957755;28;20134;-70
2022/01/20 04:12:59;;;;;;;31.40;15.23;;;;;;;0.52;100.00;101585.28;4972385;23;20456;-72
2022/01/20 04:15:45;;;;;;;32.72;16.50;;;;;;;0.53;100.00;101587.06;4944529;28;20078;-70
2022/01/20 04:18:31;;;;;;;30.38;16.15;;;;;;;0.37;100.00;101577.00;4957314;28;20520;-70
2022/01/20 04:21:17;;;;;;;34.50;16.25;;;;;;;0.45;100.00;101585.00;4958173;28;20035;-70
2022/01/20 04:24:04;;;;;;;31.45;17.00;;;;;;;0.37;100.00;101576.13;4957383;29;20059;-70
2022/01/20 04:26:50;;;;;;;33.08;16.58;;;;;;;0.17;100.00;101585.69;4957420;28;20023;-71
2022/01/20 04:29:36;;;;;;;35.13;17.23;;;;;;;0.20;100.00;101570.31;4957090;29;20479;-71
2022/01/20 04:32:22;;;;;;;37.95;19.70;;;;;;;0.22;100.00;101572.97;4957742;29;20471;-71
2022/01/20 04:35:08;;;;;;;35.85;18.80;;;;;;;0.05;100.00;101577.50;4956292;29;20027;-71
2022/01/20 04:37:56;;;;;;;40.53;21.02;;;;;;;-0.03;100.00;101569.47;4956308;29;20027;-70
2022/01/20 04:40:43;;;;;;;49.10;22.92;;;;;;;0.11;100.00;101563.97;4956046;29;20031;-70
2022/01/20 04:43:29;;;;;;;49.72;23.60;;;;;;;0.05;100.00;101562.06;4957273;28;20030;-70
2022/01/20 04:46:33;;;;;;;49.33;23.60;;;;;;;0.07;100.00;101559.53;4956980;28;20035;-70
2022/01/20 05:02:49;;;;;;;36.47;18.30;;;;;;;-0.02;100.00;101542.91;5691133;23;20051;-70
2022/01/20 05:05:35;;;;;;;40.58;19.23;;;;;;;0.08;100.00;101538.94;4956075;28;20129;-70
2022/01/20 05:19:43;;;;;;;33.10;15.00;;;;;;;-0.15;100.00;101532.94;4955073;29;20080;-69
2022/01/20 05:22:29;;;;;;;29.35;14.95;;;;;;;-0.08;100.00;101532.38;4941101;29;20044;-69
2022/01/20 05:25:15;;;;;;;25.92;13.45;;;;;;;-0.21;100.00;101537.88;4954846;28;20046;-71
2022/01/20 05:28:01;;;;;;;27.90;13.38;;;;;;;-0.19;100.00;101537.94;4936789;29;20394;-70
2022/01/20 05:30:46;;;;;;;28.25;14.43;;;;;;;-0.27;100.00;101544.50;4935951;29;20039;-69
2022/01/20 05:33:32;;;;;;;27.00;13.73;;;;;;;-0.23;100.00;101539.50;4937146;29;20453;-70
2022/01/20 05:36:18;;;;;;;28.10;14.25;;;;;;;-0.03;100.00;101540.28;4936360;29;20454;-70
2022/01/20 05:39:04;;;;;;;27.55;14.00;;;;;;;-0.04;100.00;101543.69;4937011;29;20023;-70
2022/01/20 05:41:50;;;;;;;26.55;13.60;;;;;;;-0.28;100.00;101542.75;4936914;29;20032;-68
2022/01/20 05:44:35;;;;;;;24.17;13.48;;;;;;;-0.19;100.00;101543.09;4936748;29;20334;-69
2022/01/20 05:47:27;;;;;;;28.67;14.27;;;;;;;-0.58;100.00;101538.94;4922444;29;20032;-70
2022/01/20 05:50:22;;;;;;;33.20;15.35;;;;;;;-0.51;100.00;101546.97;4937091;29;20059;-71
2022/01/20 05:59:25;;;;;;;33.03;15.32;;;;;;;-0.71;100.00;101541.84;5186588;23;20067;-71
2022/01/20 06:02:28;;;;;;;31.27;15.10;;;;;;;-0.49;100.00;101537.63;4955230;29;20097;-70
2022/01/20 06:05:14;;;;;;;30.20;15.52;;;;;;;-0.62;100.00;101537.06;4956488;28;20023;-69
2022/01/20 06:08:00;;;;;;;25.00;14.48;;;;;;;-0.72;100.00;101537.53;4936587;29;20079;-69
2022/01/20 06:10:46;;;;;;;26.52;15.10;;;;;;;-0.58;100.00;101541.50;4936071;29;20035;-70
2022/01/20 06:13:32;;;;;;;28.60;15.77;;;;;;;-0.50;100.00;101534.97;4937252;29;20128;-72
2022/01/20 06:16:17;;;;;;;31.55;16.90;;;;;;;-0.45;100.00;101539.50;4936293;29;20024;-70
2022/01/20 06:19:03;;;;;;;30.63;15.73;;;;;;;-0.68;100.00;101540.25;4936567;29;20048;-70
2022/01/20 06:21:49;;;;;;;32.25;16.15;;;;;;;-0.64;100.00;101533.56;4936877;29;20028;-70
2022/01/20 06:24:34;;;;;;;26.55;14.10;;;;;;;-0.84;100.00;101524.16;4936011;29;20046;-70
2022/01/20 06:27:20;;;;;;;31.58;15.55;;;;;;;-0.56;100.00;101532.19;4935379;29;20114;-71
2022/01/20 06:33:52;;;;;;;30.65;14.93;;;;;;;-0.80;100.00;101521.75;4935772;29;20035;-71
2022/01/20 06:36:38;;;;;;;29.55;14.30;;;;;;;-0.77;100.00;101521.91;4937297;29;20389;-69
2022/01/20 06:39:24;;;;;;;25.42;13.63;;;;;;;-0.83;100.00;101520.78;4939562;29;20342;-71
2022/01/20 06:42:10;;;;;;;26.90;13.38;;;;;;;-0.61;100.00;101520.81;4939405;29;20063;-71
2022/01/20 06:44:56;;;;;;;25.25;13.38;;;;;;;-0.50;100.00;101522.09;4932591;29;20171;-70
2022/01/20 06:47:42;;;;;;;32.28;15.68;;;;;;;-0.72;100.00;101512.66;4939420;29;20039;-70
2022/01/20 06:50:28;;;;;;;26.90;14.07;;;;;;;-0.70;100.00;101520.44;4940861;29;20035;-71
2022/01/20 06:53:13;;;;;;;27.23;13.95;;;;;;;-0.72;100.00;101522.94;4939313;29;20115;-72
2022/01/20 06:55:59;;;;;;;24.90;13.55;;;;;;;-0.42;100.00;101520.72;4926299;29;20039;-70
2022/01/20 06:58:51;;;;;;;26.70;13.30;;;;;;;-0.40;100.00;101519.94;4939424;29;20058;-72
2022/01/20 07:01:38;;;;;;;27.17;12.77;;;;;;;-0.56;100.00;101524.47;4939230;29;20349;-70
2022/01/20 07:04:26;;;;;;;25.00;12.52;;;;;;;-0.18;100.00;101527.69;4940131;29;20124;-70
2022/01/20 07:07:12;;;;;;;27.48;13.30;;;;;;;0.14;100.00;101531.47;4940027;29;20042;-70
2022/01/20 07:13:43;;;;;;;24.90;13.55;;;;;;;0.59;100.00;101517.66;4938776;29;20118;-72
2022/01/20 07:16:29;;;;;;;27.23;13.95;;;;;;;1.15;100.00;101501.50;4939444;29;20107;-71
2022/01/20 07:19:15;;;;;;;31.02;14.73;;;;;;;0.89;100.00;101481.72;4938858;29;20149;-71
2022/01/20 07:22:05;;;;;;;27.90;14.52;;;;;;;1.02;100.00;101478.72;4926072;29;20052;-70
2022/01/20 07:24:51;;;;;;;35.55;15.05;;;;;;;1.19;100.00;101480.13;4937350;29;20102;-70
2022/01/20 07:27:37;;;;;;;29.38;15.35;;;;;;;1.08;100.00;101472.03;4940555;28;20046;-71
2022/01/20 07:30:26;;;;;;;30.35;14.75;;;;;;;1.48;100.00;101466.47;4940145;28;20035;-70
2022/01/20 07:33:12;;;;;;;30.90;15.32;;;;;;;1.66;100.00;101457.56;4924819;29;20099;-71
2022/01/20 07:35:58;;;;;;;28.10;15.13;;;;;;;1.70;100.00;101461.97;4939609;29;20074;-69
2022/01/20 07:38:44;;;;;;;29.83;15.43;;;;;;;2.12;100.00;101462.31;4939113;29;20126;-71
2022/01/20 07:41:30;;;;;;;27.67;15.35;;;;;;;2.00;100.00;101459.38;4938499;29;20024;-71
2022/01/20 07:44:17;;;;;;;30.85;15.90;;;;;;;1.99;100.00;101453.38;4939330;29;20027;-71
2022/01/20 07:47:03;;;;;;;29.05;17.23;;;;;;;2.77;100.00;101455.50;4938482;29;20122;-71
2022/01/20 07:49:49;;;;;;;33.45;18.13;;;;;;;2.38;100.00;101454.47;4939206;29;20027;-70
2022/01/20 07:52:34;;;;;;;38.03;19.65;;;;;;;3.01;100.00;101447.50;4912066;29;20105;-71
2022/01/20 07:55:20;;;;;;;37.03;19.48;;;;;;;3.30;100.00;101454.22;4937513;29;20449;-70
2022/01/20 07:58:06;;;;;;;36.78;18.10;;;;;;;3.70;100.00;101454.28;4938315;29;20063;-70
2022/01/20 08:00:52;;;;;;;35.58;17.70;;;;;;;3.74;100.00;101453.50;4939480;28;20039;-70
2022/01/20 08:03:38;;;;;;;35.35;17.75;;;;;;;3.82;100.00;101458.00;4938017;29;20353;-74
2022/01/20 08:06:24;;;;;;;30.92;17.23;;;;;;;3.51;100.00;101459.91;4938653;29;20508;-70
2022/01/20 08:09:09;;;;;;;29.15;15.93;;;;;;;4.01;100.00;101454.06;4938916;29;20149;-70
2022/01/20 08:11:55;;;;;;;27.58;13.82;;;;;;;4.31;100.00;101450.38;4937868;29;20041;-71
2022/01/20 08:14:41;;;;;;;24.65;11.88;;;;;;;4.29;100.00;101449.47;4937653;29;20114;-69
2022/01/20 08:17:27;;;;;;;21.23;11.90;;;;;;;4.62;99.70;101451.81;4924609;29;20036;-69
2022/01/20 08:20:13;;;;;;;21.13;12.02;;;;;;;5.12;95.89;101444.06;4938410;29;20144;-70
2022/01/20 08:23:00;;;;;;;26.85;12.20;;;;;;;4.93;97.53;101448.91;4937627;29;20046;-70
2022/01/20 08:25:45;;;;;;;26.15;12.70;;;;;;;5.26;97.19;101449.44;4938262;29;20031;-70
2022/01/20 08:28:31;;;;;;;21.50;11.95;;;;;;;5.20;98.98;101444.16;4939109;28;20122;-70
2022/01/20 08:31:17;;;;;;;23.02;12.98;;;;;;;5.55;96.60;101447.28;4938546;29;20034;-70
2022/01/20 08:34:03;;;;;;;23.17;12.40;;;;;;;5.44;97.35;101448.00;4938009;29;20115;-70
2022/01/20 08:36:50;;;;;;;22.95;12.43;;;;;;;5.59;97.99;101452.56;4924490;29;20035;-71
2022/01/20 08:39:45;;;;;;;23.48;13.18;;;;;;;5.98;96.73;101449.66;4938776;29;20028;-71
2022/01/20 08:42:32;;;;;;;20.00;12.60;;;;;;;6.13;97.47;101444.63;4937699;29;20040;-70
2022/01/20 08:45:21;;;;;;;26.70;12.18;;;;;;;6.17;97.09;101449.00;4922995;29;20027;-70
2022/01/20 08:48:11;;;;;;;21.05;11.73;;;;;;;6.56;95.19;101441.66;4938267;29;20110;-70
2022/01/20 08:50:57;;;;;;;19.70;11.05;;;;;;;6.37;92.62;101445.78;4937660;29;20043;-71
2022/01/20 08:53:43;;;;;;;20.98;11.23;;;;;;;6.32;91.24;101446.59;4938085;29;20031;-71
2022/01/20 08:56:28;;;;;;;24.42;11.40;;;;;;;6.14;90.31;101443.78;4924173;29;20468;-70
2022/01/20 08:59:16;;;;;;;21.00;11.43;;;;;;;6.67;89.13;101450.44;4937027;29;20059;-70
2022/01/20 09:02:02;;;;;;;24.20;12.27;;;;;;;6.73;88.06;101455.69;4925278;29;20094;-70
2022/01/20 09:04:48;;;;;;;27.45;12.27;;;;;;;7.02;86.82;101452.50;4937088;29;20050;-71
2022/01/20 09:07:34;;;;;;;21.98;11.85;;;;;;;7.20;86.75;101451.78;4924033;29;20035;-70
2022/01/20 09:10:21;;;;;;;20.50;12.45;;;;;;;7.12;85.65;101445.66;4937057;29;20054;-70
2022/01/20 09:16:11;;;;;;;21.17;12.50;;;;;;;7.04;86.59;101429.06;4936257;29;20023;-71
2022/01/20 09:18:57;;;;;;;20.33;10.80;;;;;;;6.98;84.93;101424.69;4937065;29;20418;-71
2022/01/20 09:21:44;;;;;;;18.02;11.05;;;;;;;7.12;85.56;101423.03;4938052;29;20094;-70
2022/01/20 09:24:30;;;;;;;19.52;9.85;;;;;;;7.19;81.44;101413.56;4936681;29;20577;-71
2022/01/20 09:27:16;;;;;;;20.25;9.27;;;;;;;7.73;78.79;101412.16;4936542;29;20064;-69
2022/01/20 09:30:04;;;;;;;15.65;9.43;;;;;;;7.98;76.34;101400.09;4936014;29;20040;-71
2022/01/20 09:33:00;;;;;;;13.75;7.35;;;;;;;7.36;77.94;101389.34;4923349;29;20059;-70
2022/01/20 09:35:46;;;;;;;14.70;8.30;;;;;;;7.83;76.36;101382.63;4936787;29;20035;-70
2022/01/20 09:38:32;;;;;;;15.23;8.07;;;;;;;7.61;76.33;101382.53;4936120;29;20118;-70
2022/01/20 09:41:20;;;;;;;14.05;7.60;;;;;;;7.65;75.79;101376.47;4936493;29;20051;-71
2022/01/20 09:44:06;;;;;;;13.10;7.00;;;;;;;7.37;73.60;101369.38;4937444;29;20066;-69
2022/01/20 09:46:52;;;;;;;15.20;8.15;;;;;;;7.85;72.01;101367.88;4935285;29;20036;-71
2022/01/20 09:49:41;;;;;;;12.82;7.43;;;;;;;7.91;69.48;101356.56;4937057;29;20031;-71
2022/01/20 09:52:28;;;;;;;13.63;6.95;;;;;;;8.11;67.74;101349.66;4936372;29;20027;-71
2022/01/20 09:55:14;;;;;;;12.57;6.35;;;;;;;8.27;64.55;101349.75;4936191;29;20024;-70
2022/01/20 09:58:00;;;;;;;11.02;5.88;;;;;;;8.02;61.37;101342.72;4935685;29;20078;-70
2022/01/20 10:00:47;;;;;;;8.82;4.68;;;;;;;8.36;59.12;101333.25;4935710;29;20031;-71
2022/01/20 10:03:35;;;;;;;11.80;4.57;;;;;;;8.30;55.62;101326.28;4936717;29;20486;-70
2022/01/20 10:06:21;;;;;;;8.57;4.50;;;;;;;8.45;53.46;101325.41;4936657;29;20464;-70
2022/01/20 10:09:07;;;;;;;13.45;4.88;;;;;;;8.51;51.64;101314.97;4935946;29;20063;-70
2022/01/20 10:11:54;;;;;;;6.53;4.05;;;;;;;8.31;51.20;101307.13;4938516;29;20372;-70
2022/01/20 10:14:48;;;;;;;11.30;4.85;;;;;;;8.63;51.11;101292.34;4939642;29;20117;-72
2022/01/20 10:17:34;;;;;;;16.33;5.00;;;;;;;8.31;50.32;101296.69;4925581;29;20042;-71
2022/01/20 10:20:19;;;;;;;7.03;4.60;;;;;;;8.51;49.81;101291.47;4939589;29;20046;-71
2022/01/20 10:23:05;;;;;;;7.32;4.68;;;;;;;8.58;51.11;101293.19;4939712;29;20445;-71
2022/01/20 10:26:07;;;;;;;10.60;5.63;;;;;;;9.14;49.96;101296.63;4939020;29;20042;-70
2022/01/20 10:28:58;;;;;;;16.48;6.03;;;;;;;8.54;51.50;101292.34;4939628;29;20027;-69
2022/01/20 10:31:51;;;;;;;12.32;6.03;;;;;;;8.63;52.02;101289.72;4938812;29;20038;-70
2022/01/20 10:34:37;;;;;;;9.43;5.55;;;;;;;8.88;52.81;101277.53;4925647;29;20028;-71
2022/01/20 10:37:25;;;;;;;11.27;6.00;;;;;;;9.16;53.23;101282.66;4938909;29;20460;-69
2022/01/20 10:40:14;;;;;;;10.60;5.38;;;;;;;9.01;52.16;101277.47;4939201;29;20118;-71
2022/01/20 10:43:00;;;;;;;11.60;5.70;;;;;;;8.85;52.50;101270.53;4938628;29;20042;-70
2022/01/20 10:45:46;;;;;;;12.50;5.60;;;;;;;9.13;52.94;101263.50;4938574;29;20343;-69
2022/01/20 10:48:32;;;;;;;13.85;5.95;;;;;;;9.19;52.17;101269.59;4938600;29;20067;-70
2022/01/20 10:51:20;;;;;;;10.65;5.90;;;;;;;9.29;51.84;101265.22;4924729;29;20110;-70
2022/01/20 10:54:12;;;;;;;13.82;5.93;;;;;;;9.13;50.86;101253.91;4925903;29;20474;-70
2022/01/20 10:56:58;;;;;;;14.40;6.00;;;;;;;9.25;51.23;101253.03;4939028;29;20023;-70
2022/01/20 10:59:54;;;;;;;11.13;5.60;;;;;;;9.60;51.09;101251.09;4937623;29;20058;-69
2022/01/20 11:02:41;;;;;;;13.02;6.22;;;;;;;9.48;50.59;101251.16;4938128;29;20467;-71
2022/01/20 11:05:29;;;;;;;12.27;5.85;;;;;;;9.75;50.69;101245.78;4938865;29;20031;-70
2022/01/20 11:08:15;;;;;;;17.17;5.75;;;;;;;9.82;49.42;101247.50;4939054;29;20039;-71
2022/01/20 11:11:02;;;;;;;13.43;5.60;;;;;;;9.71;49.84;101239.72;4938687;29;20042;-70
2022/01/20 11:13:48;;;;;;;13.40;5.50;;;;;;;9.72;48.91;101243.19;4937969;29;20028;-70
2022/01/20 11:16:38;;;;;;;13.23;4.90;;;;;;;9.77;49.33;101238.81;4938501;29;20090;-71
2022/01/20 11:19:25;;;;;;;9.18;5.18;;;;;;;9.89;49.14;101244.81;4938292;29;20452;-71
2022/01/20 11:22:12;;;;;;;10.65;5.60;;;;;;;10.23;49.57;101245.50;4938256;29;20092;-70
2022/01/20 11:25:07;;;;;;;12.88;6.57;;;;;;;10.20;49.52;101244.66;4938403;29;20043;-71
2022/01/20 11:28:16;;;;;;;13.00;5.55;;;;;;;9.92;49.88;101233.47;4938926;29;20095;-71
2022/01/20 11:31:08;;;;;;;14.15;5.38;;;;;;;9.98;50.80;101233.44;4924802;29;20035;-71
2022/01/20 11:33:54;;;;;;;11.10;5.53;;;;;;;10.35;50.36;101228.81;4939377;29;20039;-73
2022/01/20 11:36:40;;;;;;;10.18;5.22;;;;;;;10.22;51.04;101220.19;4937582;29;20020;-70
2022/01/20 11:39:26;;;;;;;8.98;5.50;;;;;;;10.17;51.52;101223.72;4938226;29;20054;-71
2022/01/20 11:42:24;;;;;;;9.85;5.70;;;;;;;10.31;51.30;101216.63;4938328;29;20376;-71
2022/01/20 11:45:23;;;;;;;10.07;5.60;;;;;;;10.25;51.57;101228.03;4937899;29;20028;-72
2022/01/20 11:48:20;;;;;;;10.77;5.65;;;;;;;10.69;50.95;101204.91;4937643;29;20023;-71
2022/01/20 11:51:09;;;;;;;9.55;5.40;;;;;;;10.64;51.05;101206.69;4923823;29;20024;-71
2022/01/20 11:54:05;;;;;;;14.52;5.30;;;;;;;10.37;51.60;101206.09;4937756;29;20028;-72
2022/01/20 11:57:03;;;;;;;11.40;5.25;;;;;;;10.39;51.93;101193.84;4937588;29;20035;-70
2022/01/20 11:59:56;;;;;;;10.63;5.47;;;;;;;10.75;51.85;101186.50;4923342;29;20070;-71
2022/01/20 12:02:42;;;;;;;9.27;5.43;;;;;;;10.68;52.12;101178.72;4938558;29;20043;-71
2022/01/20 12:05:31;;;;;;;11.48;5.53;;;;;;;10.90;52.18;101174.97;4937412;29;20516;-71
2022/01/20 12:08:20;;;;;;;9.90;5.03;;;;;;;10.98;51.39;101176.63;4938063;29;20027;-72
2022/01/20 12:11:08;;;;;;;11.18;5.57;;;;;;;10.87;51.79;101161.91;4937607;29;20094;-71
2022/01/20 12:13:55;;;;;;;8.85;5.20;;;;;;;10.66;52.72;101168.25;4937478;29;20027;-71
2022/01/20 12:16:41;;;;;;;10.13;5.75;;;;;;;10.78;52.69;101162.88;4937879;29;20419;-72
2022/01/20 12:19:27;;;;;;;10.32;5.97;;;;;;;10.77;53.01;101166.38;4936834;29;20032;-70
2022/01/20 12:22:12;;;;;;;15.75;8.32;;;;;;;10.76;53.42;101164.66;4938865;29;20028;-71
2022/01/20 12:24:59;;;;;;;11.30;6.63;;;;;;;11.11;53.63;101165.09;4939056;29;20064;-71
2022/01/20 12:35:50;;;;;;;9.60;4.47;;;;;;;11.16;53.45;101155.41;5577490;23;20051;-72
2022/01/20 12:38:41;;;;;;;9.15;4.82;;;;;;;11.17;53.86;101157.16;4956051;29;20128;-72
2022/01/20 12:41:26;;;;;;;7.97;4.70;;;;;;;11.33;53.99;101145.56;4956841;29;20459;-72
2022/01/20 12:44:14;;;;;;;12.57;4.93;;;;;;;11.30;54.24;101143.00;4956157;29;20023;-72
2022/01/20 12:47:00;;;;;;;6.57;4.40;;;;;;;11.09;54.61;101142.41;4955440;28;20337;-72
2022/01/20 12:49:57;;;;;;;7.18;4.45;;;;;;;10.99;54.79;101143.41;4955581;29;20031;-73
2022/01/20 12:52:50;;;;;;;8.50;4.60;;;;;;;11.10;54.52;101126.66;4943731;29;20109;-72
2022/01/20 12:55:36;;;;;;;10.07;4.28;;;;;;;10.97;54.41;101124.22;4955651;28;20047;-72
2022/01/20 12:58:22;;;;;;;8.05;4.13;;;;;;;11.04;54.53;101115.38;4957365;28;20178;-71
2022/01/20 13:01:07;;;;;;;10.40;4.45;;;;;;;10.94;54.29;101117.25;4955645;29;20042;-71
2022/01/20 13:03:58;;;;;;;8.90;4.20;;;;;;;10.84;54.56;101128.72;4957536;28;20114;-71
2022/01/20 13:06:51;;;;;;;8.82;4.10;;;;;;;11.05;54.50;101125.00;4955855;28;20034;-73
2022/01/20 13:09:53;;;;;;;7.40;4.43;;;;;;;10.98;54.81;101113.72;4956172;29;20364;-70
2022/01/20 13:12:40;;;;;;;8.95;4.22;;;;;;;11.01;55.03;101113.66;4956287;29;20027;-71
2022/01/20 13:15:27;;;;;;;7.97;4.28;;;;;;;11.27;54.67;101111.56;4955770;28;20023;-72
2022/01/20 13:18:13;;;;;;;11.65;4.28;;;;;;;10.84;54.64;101105.13;4954856;29;20038;-70
2022/01/20 13:20:59;;;;;;;12.88;4.78;;;;;;;10.81;54.42;101097.31;4956126;29;20452;-71
2022/01/20 13:23:57;;;;;;;9.45;4.10;;;;;;;10.77;54.52;101100.84;4955851;29;20035;-69
2022/01/20 13:26:46;;;;;;;9.02;4.20;;;;;;;10.68;55.02;101102.75;4941606;29;20118;-70
2022/01/20 13:29:46;;;;;;;8.30;4.10;;;;;;;10.81;54.85;101099.94;4941591;29;20031;-70
2022/01/20 13:32:31;;;;;;;6.50;4.03;;;;;;;10.67;55.13;101093.13;4956468;29;20526;-70
2022/01/20 13:35:17;;;;;;;7.70;4.18;;;;;;;10.65;55.34;101090.50;4954812;28;20551;-70
2022/01/20 13:38:04;;;;;;;7.65;3.97;;;;;;;10.65;55.89;101092.28;4942970;29;20127;-71
2022/01/20 13:40:50;;;;;;;8.45;3.90;;;;;;;10.58;56.01;101099.34;4941656;29;20043;-72
2022/01/20 13:47:09;;;;;;;10.57;3.95;;;;;;;10.55;56.60;101085.41;4958914;28;20106;-71
2022/01/20 13:49:57;;;;;;;7.82;4.20;;;;;;;10.73;56.96;101086.06;4960149;29;20031;-71
2022/01/20 13:52:43;;;;;;;7.88;4.20;;;;;;;10.45;56.42;101086.41;4945631;29;20135;-71
2022/01/20 13:55:37;;;;;;;7.97;3.92;;;;;;;10.49;56.41;101081.09;4958818;28;20505;-70
2022/01/20 13:58:29;;;;;;;7.88;4.30;;;;;;;10.42;57.01;101094.28;4945694;29;20027;-70
2022/01/20 14:01:15;;;;;;;9.40;4.30;;;;;;;10.52;57.06;101101.19;4958952;29;20035;-71
2022/01/20 14:04:02;;;;;;;5.93;3.95;;;;;;;10.50;57.40;101095.97;4958783;29;20035;-70
2022/01/20 14:06:48;;;;;;;8.13;4.10;;;;;;;10.46;57.51;101096.00;4958415;28;20055;-71
2022/01/20 14:13:17;;;;;;;8.77;4.22;;;;;;;10.29;57.87;101093.53;4958887;29;20035;-70
2022/01/20 14:16:03;;;;;;;9.05;4.32;;;;;;;10.25;58.14;101099.72;4959447;28;20148;-71
2022/01/20 14:18:56;;;;;;;8.35;4.50;;;;;;;10.26;58.57;101093.59;4945885;29;20353;-70
2022/01/20 14:21:42;;;;;;;7.32;4.15;;;;;;;10.20;58.24;101092.78;4960084;29;20110;-71
2022/01/20 14:24:28;;;;;;;6.70;4.28;;;;;;;10.02;58.59;101096.41;4958220;29;20035;-70
2022/01/20 14:27:16;;;;;;;6.97;3.95;;;;;;;10.17;58.10;101095.44;4958488;28;20023;-71
2022/01/20 14:30:05;;;;;;;8.30;3.90;;;;;;;10.23;58.04;101092.75;4958218;29;20144;-71
2022/01/20 14:36:32;;;;;;;10.95;5.32;;;;;;;9.87;58.71;101110.50;4959308;28;20512;-70
2022/01/20 14:39:18;;;;;;;7.32;4.55;;;;;;;9.86;59.90;101108.75;4958072;29;20027;-70
2022/01/20 14:42:11;;;;;;;10.68;5.05;;;;;;;9.92;59.42;101108.72;4959749;28;20110;-71
2022/01/20 14:44:58;;;;;;;11.35;4.70;;;;;;;9.93;59.71;101104.34;4958617;29;20031;-70
2022/01/20 14:47:43;;;;;;;9.60;4.07;;;;;;;9.75;60.09;101109.72;4957707;29;20035;-71
2022/01/20 14:50:29;;;;;;;6.88;4.22;;;;;;;9.77;60.47;101106.22;4946259;28;20047;-70
2022/01/20 14:53:15;;;;;;;8.27;4.43;;;;;;;9.67;61.03;101103.69;4944277;29;20376;-70
2022/01/20 14:56:01;;;;;;;8.95;4.45;;;;;;;9.79;61.06;101093.13;4959863;28;20110;-70
2022/01/20 14:58:47;;;;;;;8.65;4.13;;;;;;;9.57;60.95;101094.19;4957463;29;20078;-71
2022/01/20 15:01:32;;;;;;;8.02;4.30;;;;;;;9.53;60.57;101095.09;4943996;29;20055;-70
2022/01/20 15:04:18;;;;;;;10.63;3.63;;;;;;;9.55;60.44;101106.41;4958294;29;20023;-72
2022/01/20 15:07:04;;;;;;;6.85;3.60;;;;;;;9.39;60.29;101103.03;4943485;29;20092;-71
2022/01/20 15:09:50;;;;;;;9.38;4.00;;;;;;;9.31;60.65;101098.72;4957739;29;20038;-71
2022/01/20 15:12:36;;;;;;;7.80;4.35;;;;;;;9.37;60.60;101104.75;4958832;28;20110;-70
2022/01/20 15:25:43;;;;;;;9.50;4.72;;;;;;;8.96;61.81;101087.63;5304298;23;20417;-70
2022/01/20 15:28:30;;;;;;;9.77;5.05;;;;;;;8.86;62.27;101086.78;4938443;29;20032;-70
2022/01/20 15:31:16;;;;;;;9.60;4.95;;;;;;;8.97;62.13;101095.41;4938869;29;20118;-70
2022/01/20 15:34:08;;;;;;;9.38;4.85;;;;;;;8.92;62.13;101081.50;4940051;28;20024;-70
2022/01/20 15:36:54;;;;;;;9.05;4.65;;;;;;;9.03;61.69;101086.69;4938651;29;20035;-71
2022/01/20 15:39:40;;;;;;;9.73;5.90;;;;;;;8.68;62.67;101080.78;4939407;29;20123;-71